createdAt,value
2018-10-05T00:04:12.410Z,92.36
2018-10-05T00:09:11.344Z,91.83
2018-10-05T00:14:09.165Z,92.54
2018-10-05T00:19:06.755Z,91.99
2018-10-05T00:29:18.955Z,91.96
2018-10-05T00:34:16.425Z,91.83
2018-10-05T00:39:13.981Z,91.68
2018-10-05T00:44:11.447Z,91.48
2018-10-05T00:49:08.913Z,91.19
2018-10-05T00:54:12.827Z,91.55
2018-10-05T00:59:10.453Z,92.55
2018-10-05T01:04:07.911Z,91.98
2018-10-05T01:09:06.371Z,92.20
2018-10-05T01:14:04.017Z,91.76
2018-10-05T01:19:01.556Z,92.08
2018-10-05T01:24:07.624Z,91.96
2018-10-05T01:29:05.639Z,92.25
2018-10-05T01:34:03.117Z,92.27
2018-10-05T01:39:00.596Z,92.80
2018-10-05T01:43:58.067Z,93.09
2018-10-05T01:48:55.554Z,93.16
2018-10-05T01:54:00.457Z,92.77
2018-10-05T01:58:58.058Z,92.55
2018-10-05T02:03:55.546Z,92.19
2018-10-05T02:08:53.016Z,92.59
2018-10-05T02:13:50.519Z,91.05
2018-10-05T02:18:47.983Z,91.16
2018-10-05T02:23:48.062Z,92.50
2018-10-05T02:28:48.091Z,92.52
2018-10-05T02:33:47.571Z,92.88
2018-10-05T02:38:46.700Z,93.67
2018-10-05T02:43:44.180Z,93.04
2018-10-05T02:48:41.670Z,90.62
2018-10-05T02:53:39.161Z,91.33
2018-10-05T02:58:36.617Z,92.52
2018-10-05T03:03:34.273Z,92.67
2018-10-05T03:08:31.762Z,92.36
2018-10-05T03:13:29.235Z,90.79
2018-10-05T03:18:26.729Z,91.16
2018-10-05T03:23:24.207Z,90.98
2018-10-05T03:28:21.719Z,91.21
2018-10-05T03:33:19.195Z,91.92
2018-10-05T03:38:16.757Z,92.56
2018-10-05T03:43:14.252Z,91.98
2018-10-05T03:48:11.814Z,92.48
2018-10-05T03:53:09.313Z,91.41
2018-10-05T03:58:06.800Z,92.52
2018-10-05T04:03:04.299Z,92.36
2018-10-05T04:08:01.786Z,91.51
2018-10-05T04:12:59.244Z,92.27
2018-10-05T04:17:56.753Z,91.66
2018-10-05T04:22:54.261Z,91.62
2018-10-05T04:27:51.774Z,91.95
2018-10-05T04:32:49.288Z,92.00
2018-10-05T04:37:46.787Z,91.45
2018-10-05T04:42:44.336Z,92.32
2018-10-05T04:47:41.807Z,92.44
2018-10-05T04:52:39.274Z,92.67
2018-10-05T04:57:36.785Z,93.71
2018-10-05T05:02:34.328Z,93.75
2018-10-05T05:07:31.941Z,93.39
2018-10-05T05:12:29.477Z,94.18
2018-10-05T05:17:26.997Z,94.11
2018-10-05T05:22:24.509Z,93.29
2018-10-05T05:27:22.036Z,92.77
2018-10-05T05:32:19.533Z,92.57
2018-10-05T05:37:17.081Z,93.30
2018-10-05T05:42:14.703Z,93.86
2018-10-05T05:47:15.073Z,92.55
2018-10-05T05:52:12.605Z,92.57
2018-10-05T05:57:10.142Z,93.61
2018-10-05T06:02:07.724Z,89.83
2018-10-05T06:07:05.262Z,79.98
2018-10-05T06:12:02.814Z,71.65
2018-10-05T06:17:00.314Z,65.92
2018-10-05T06:21:57.924Z,63.28
2018-10-05T06:26:55.369Z,59.05
2018-10-05T06:31:52.885Z,58.55
2018-10-05T06:36:50.428Z,57.19
2018-10-05T06:41:47.952Z,56.11
2018-10-05T06:46:45.511Z,55.73
2018-10-05T06:51:43.096Z,58.97
2018-10-05T06:56:40.681Z,64.64
2018-10-05T07:01:38.447Z,69.04
2018-10-05T07:06:35.915Z,70.58
2018-10-05T07:11:33.500Z,72.32
2018-10-05T07:16:31.090Z,72.92
2018-10-05T07:21:28.650Z,72.38
2018-10-05T07:26:26.152Z,72.77
2018-10-05T07:31:23.654Z,72.74
2018-10-05T07:36:21.158Z,72.01
2018-10-05T07:41:18.719Z,71.29
2018-10-05T07:46:16.226Z,71.72
2018-10-05T07:51:13.739Z,70.31
2018-10-05T07:56:11.311Z,70.26
2018-10-05T08:01:08.831Z,69.74
2018-10-05T08:06:06.384Z,67.95
2018-10-05T08:11:03.899Z,67.65
2018-10-05T08:16:01.384Z,66.24
2018-10-05T08:20:58.951Z,65.83
2018-10-05T08:25:56.442Z,64.83
2018-10-05T08:30:53.949Z,66.18
2018-10-05T08:35:51.464Z,64.94
2018-10-05T08:40:49.027Z,64.14
2018-10-05T08:45:46.589Z,62.84
2018-10-05T08:50:44.075Z,62.58
2018-10-05T08:55:41.636Z,61.78
2018-10-05T09:00:39.163Z,61.76
2018-10-05T09:05:36.738Z,59.82
2018-10-05T09:10:34.263Z,61.29
2018-10-05T09:15:31.773Z,59.53
2018-10-05T09:20:29.284Z,57.94
2018-10-05T09:25:26.825Z,58.14
2018-10-05T09:30:24.322Z,57.08
2018-10-05T09:35:21.832Z,57.71
2018-10-05T09:40:19.359Z,57.41
2018-10-05T09:45:17.005Z,56.97
2018-10-05T09:50:14.454Z,56.02
2018-10-05T09:55:11.996Z,54.61
2018-10-05T10:00:14.056Z,54.05
2018-10-05T10:05:11.564Z,53.50
2018-10-05T10:10:09.070Z,51.63
2018-10-05T10:15:06.615Z,50.29
2018-10-05T10:20:04.192Z,50.63
2018-10-05T10:25:01.793Z,51.17
2018-10-05T10:29:59.298Z,50.78
2018-10-05T10:34:56.804Z,49.56
2018-10-05T10:39:54.365Z,48.76
2018-10-05T10:44:51.886Z,49.94
2018-10-05T10:49:49.361Z,48.95
2018-10-05T10:54:47.997Z,47.23
2018-10-05T10:59:45.499Z,47.24
2018-10-05T11:04:44.286Z,47.49
2018-10-05T11:09:41.827Z,48.39
2018-10-05T11:14:39.387Z,47.06
2018-10-05T11:19:36.964Z,45.55
2018-10-05T11:24:35.651Z,46.98
2018-10-05T11:29:33.149Z,47.28
2018-10-05T11:34:30.703Z,46.90
2018-10-05T11:39:28.237Z,46.81
2018-10-05T11:44:25.826Z,47.25
2018-10-05T11:49:23.319Z,46.62
2018-10-05T11:54:29.289Z,45.33
2018-10-05T11:59:30.642Z,44.48
2018-10-05T12:04:28.463Z,43.78
2018-10-05T12:09:25.982Z,46.28
2018-10-05T12:14:23.668Z,45.60
2018-10-05T12:19:23.415Z,44.89
2018-10-05T12:24:25.077Z,45.29
2018-10-05T12:29:35.407Z,44.67
2018-10-05T12:34:37.422Z,43.82
2018-10-05T12:39:39.423Z,43.64
2018-10-05T12:44:40.253Z,42.62
2018-10-05T12:49:46.991Z,43.89
2018-10-05T12:54:47.712Z,43.96
2018-10-05T12:59:49.351Z,44.43
2018-10-05T13:04:49.195Z,44.21
2018-10-05T13:09:58.391Z,44.07
2018-10-05T13:14:56.037Z,43.72
2018-10-05T13:19:53.543Z,44.04
2018-10-05T13:24:52.798Z,43.60
2018-10-05T13:29:50.317Z,42.87
2018-10-05T13:34:47.865Z,43.52
2018-10-05T13:39:45.427Z,43.76
2018-10-05T13:44:42.897Z,42.33
2018-10-05T13:49:40.416Z,43.05
2018-10-05T13:54:39.091Z,42.20
2018-10-05T13:59:36.651Z,43.60
2018-10-05T14:04:34.142Z,42.37
2018-10-05T14:09:31.610Z,42.51
2018-10-05T14:14:29.120Z,42.53
2018-10-05T14:19:26.639Z,43.42
2018-10-05T14:24:25.337Z,43.35
2018-10-05T14:29:22.841Z,43.34
2018-10-05T14:34:20.323Z,43.08
2018-10-05T14:39:17.841Z,43.26
2018-10-05T14:44:15.664Z,43.63
2018-10-05T14:49:13.170Z,43.58
2018-10-05T14:54:23.133Z,44.45
2018-10-05T14:59:20.713Z,43.84
2018-10-05T15:04:18.240Z,44.47
2018-10-05T15:09:15.725Z,44.73
2018-10-05T15:14:13.230Z,44.64
2018-10-05T15:19:10.731Z,45.31
2018-10-05T15:24:12.984Z,45.33
2018-10-05T15:29:10.668Z,45.07
2018-10-05T15:34:08.168Z,45.33
2018-10-05T15:39:06.944Z,45.59
2018-10-05T15:44:04.721Z,44.66
2018-10-05T15:49:02.263Z,45.79
2018-10-05T15:54:05.150Z,45.44
2018-10-05T15:59:02.729Z,46.72
2018-10-05T16:04:00.209Z,46.90
2018-10-05T16:08:58.079Z,49.66
2018-10-05T16:13:55.633Z,48.80
2018-10-05T16:18:53.121Z,50.37
2018-10-05T16:23:56.590Z,49.78
2018-10-05T16:28:54.222Z,51.62
2018-10-05T16:33:51.717Z,52.17
2018-10-05T16:38:49.205Z,55.79
2018-10-05T16:43:46.750Z,54.80
2018-10-05T16:48:44.352Z,54.85
2018-10-05T16:53:43.339Z,56.10
2018-10-05T16:58:41.040Z,56.98
2018-10-05T17:03:38.533Z,57.28
2018-10-05T17:08:39.744Z,59.99
2018-10-05T17:13:37.361Z,59.70
2018-10-05T17:18:34.913Z,61.57
2018-10-05T17:23:32.472Z,62.60
2018-10-05T17:28:29.980Z,62.85
2018-10-05T17:33:27.510Z,62.99
2018-10-05T17:38:25.038Z,64.67
2018-10-05T17:43:22.560Z,64.52
2018-10-05T17:48:23.328Z,65.50
2018-10-05T17:53:22.037Z,65.94
2018-10-05T17:58:19.606Z,66.02
2018-10-05T18:03:17.095Z,65.66
2018-10-05T18:08:21.936Z,66.30
2018-10-05T18:13:24.276Z,66.13
2018-10-05T18:18:22.979Z,66.72
2018-10-05T18:23:20.541Z,67.51
2018-10-05T18:28:20.374Z,67.50
2018-10-05T18:33:19.666Z,68.93
2018-10-05T18:38:17.969Z,69.24
2018-10-05T18:43:15.433Z,68.96
2018-10-05T18:48:13.629Z,67.81
2018-10-05T18:53:11.250Z,68.15
2018-10-05T18:58:08.740Z,67.54
2018-10-05T19:03:06.258Z,67.68
2018-10-05T19:08:03.773Z,67.82
2018-10-05T19:13:06.444Z,68.39
2018-10-05T19:18:03.954Z,70.69
2018-10-05T19:23:01.409Z,71.89
2018-10-05T19:27:58.938Z,70.63
2018-10-05T19:32:56.399Z,71.34
2018-10-05T19:37:53.922Z,72.18
2018-10-05T19:42:52.721Z,72.84
2018-10-05T19:47:50.303Z,71.53
2018-10-05T19:52:47.963Z,73.40
2018-10-05T19:57:45.460Z,74.74
2018-10-05T20:02:43.043Z,76.00
2018-10-05T20:07:40.530Z,76.93
2018-10-05T20:12:38.080Z,78.33
2018-10-05T20:17:35.607Z,79.43
2018-10-05T20:22:33.245Z,79.86
2018-10-05T20:27:30.800Z,79.96
2018-10-05T20:32:28.302Z,79.96
2018-10-05T20:37:26.051Z,80.27
2018-10-05T20:42:23.443Z,81.22
2018-10-05T20:47:20.933Z,80.96
2018-10-05T20:52:18.442Z,81.29
2018-10-05T20:57:15.929Z,82.03
2018-10-05T21:02:13.418Z,81.48
2018-10-05T21:07:10.990Z,81.24
2018-10-05T21:12:08.445Z,80.03
2018-10-05T21:17:06.174Z,77.64
2018-10-05T21:22:03.652Z,78.29
2018-10-05T21:27:01.193Z,80.06
2018-10-05T21:31:59.115Z,80.26
2018-10-05T21:36:56.590Z,81.26
2018-10-05T21:41:54.063Z,82.79
2018-10-05T21:46:51.532Z,82.22
2018-10-05T21:51:49.114Z,83.41
2018-10-05T21:56:46.587Z,81.59
2018-10-05T22:01:44.052Z,81.99
2018-10-05T22:06:41.540Z,81.22
2018-10-05T22:11:39.335Z,82.73
2018-10-05T22:16:36.830Z,82.96
2018-10-05T22:21:34.358Z,82.09
2018-10-05T22:26:31.843Z,83.47
2018-10-05T22:31:29.418Z,83.23
2018-10-05T22:36:26.907Z,83.67
2018-10-05T22:41:24.408Z,82.90
2018-10-05T22:46:21.873Z,83.05
2018-10-05T22:51:19.389Z,84.65
2018-10-05T22:56:16.972Z,84.23
2018-10-05T23:01:14.453Z,83.35
2018-10-05T23:06:11.905Z,82.45
2018-10-05T23:11:09.369Z,82.32
2018-10-05T23:16:07.130Z,81.90
2018-10-05T23:21:04.687Z,82.22
2018-10-05T23:26:02.155Z,82.49
2018-10-05T23:30:59.609Z,82.84
2018-10-05T23:35:57.138Z,82.03
2018-10-05T23:40:55.662Z,82.62
2018-10-05T23:45:53.316Z,84.28
2018-10-05T23:50:50.804Z,84.72
2018-10-05T23:55:48.430Z,85.49
